createdAt,value
2022-08-28T00:00:12.392Z,13.90
2022-08-28T00:00:25.726Z,13.95
2022-08-28T00:00:39.671Z,14.00
2022-08-28T00:00:51.629Z,14.63
2022-08-28T00:01:04.223Z,15.15
2022-08-28T00:01:16.405Z,15.73
2022-08-28T00:01:28.352Z,17.48
2022-08-28T00:01:40.355Z,17.42
2022-08-28T00:01:52.315Z,15.60
2022-08-28T00:02:04.564Z,14.50
2022-08-28T00:02:16.858Z,15.32
2022-08-28T00:02:28.866Z,15.05
2022-08-28T00:02:41.295Z,13.93
2022-08-28T00:02:53.991Z,13.32
2022-08-28T00:03:06.882Z,13.48
2022-08-28T00:03:19.611Z,13.27
2022-08-28T00:03:32.389Z,12.68
2022-08-28T00:03:44.591Z,13.05
2022-08-28T00:03:57.872Z,13.40
2022-08-28T00:04:09.789Z,14.43
2022-08-28T00:04:21.892Z,15.20
2022-08-28T00:04:34.446Z,14.27
2022-08-28T00:04:46.619Z,13.40
2022-08-28T00:04:58.768Z,15.27
2022-08-28T00:05:11.610Z,18.65
2022-08-28T00:05:26.096Z,19.65
2022-08-28T00:05:41.650Z,18.48
2022-08-28T00:05:53.739Z,16.05
2022-08-28T00:06:06.013Z,14.18
2022-08-28T00:06:18.791Z,14.68
2022-08-28T00:06:30.817Z,14.85
2022-08-28T00:06:42.747Z,13.90
2022-08-28T00:06:54.748Z,14.15
2022-08-28T00:07:06.672Z,13.85
2022-08-28T00:07:19.334Z,14.60
2022-08-28T00:07:31.436Z,15.48
2022-08-28T00:07:47.685Z,15.85
2022-08-28T00:08:00.876Z,14.13
2022-08-28T00:08:15.268Z,14.45
2022-08-28T00:08:27.376Z,14.90
2022-08-28T00:08:39.355Z,13.68
2022-08-28T00:08:51.459Z,13.02
2022-08-28T00:09:04.444Z,15.80
2022-08-28T00:09:16.423Z,18.50
2022-08-28T00:09:28.369Z,16.85
2022-08-28T00:09:40.476Z,15.57
2022-08-28T00:09:52.435Z,15.68
2022-08-28T00:10:05.860Z,16.40
2022-08-28T00:10:20.639Z,16.48
2022-08-28T00:10:34.728Z,16.23
2022-08-28T00:10:47.247Z,15.50
2022-08-28T00:10:59.820Z,15.45
2022-08-28T00:11:11.999Z,14.30
2022-08-28T00:11:24.062Z,13.05
2022-08-28T00:11:38.602Z,13.10
2022-08-28T00:11:50.577Z,11.80
2022-08-28T00:12:02.922Z,11.68
2022-08-28T00:12:14.875Z,11.63
2022-08-28T00:12:27.141Z,11.63
2022-08-28T00:12:39.800Z,11.40
2022-08-28T00:12:55.679Z,11.25
2022-08-28T00:13:13.743Z,11.45
2022-08-28T00:13:26.886Z,13.15
2022-08-28T00:13:39.024Z,14.27
2022-08-28T00:13:51.586Z,15.15
2022-08-28T00:14:07.932Z,14.02
2022-08-28T00:14:21.086Z,12.65
2022-08-28T00:14:33.075Z,13.52
2022-08-28T00:14:45.030Z,14.32
2022-08-28T00:14:57.376Z,13.23
2022-08-28T00:15:15.148Z,13.20
2022-08-28T00:15:38.851Z,14.25
2022-08-28T00:15:54.549Z,14.15
2022-08-28T00:16:07.061Z,13.77
2022-08-28T00:16:19.143Z,13.95
2022-08-28T00:16:31.456Z,12.85
2022-08-28T00:16:43.429Z,13.40
2022-08-28T00:16:55.442Z,14.18
2022-08-28T00:17:07.441Z,15.00
2022-08-28T00:17:19.393Z,14.02
2022-08-28T00:17:31.306Z,14.07
2022-08-28T00:17:43.518Z,15.05
2022-08-28T00:17:55.894Z,15.23
2022-08-28T00:18:08.630Z,14.73
2022-08-28T00:18:21.251Z,15.00
2022-08-28T00:18:34.238Z,16.77
2022-08-28T00:18:47.119Z,15.75
2022-08-28T00:18:59.619Z,13.75
2022-08-28T00:19:11.779Z,13.38
2022-08-28T00:19:24.319Z,14.17
2022-08-28T00:19:38.656Z,14.48
2022-08-28T00:19:51.195Z,14.50
2022-08-28T00:20:05.244Z,15.38
2022-08-28T00:20:20.638Z,16.23
2022-08-28T00:20:34.022Z,15.05
2022-08-28T00:20:47.263Z,14.55
2022-08-28T00:20:59.933Z,13.93
2022-08-28T00:21:12.653Z,13.70
2022-08-28T00:21:25.193Z,15.10
2022-08-28T00:21:37.494Z,15.00
2022-08-28T00:21:50.435Z,14.77
2022-08-28T00:22:04.144Z,14.85
2022-08-28T00:22:16.452Z,16.25
2022-08-28T00:22:28.411Z,18.67
2022-08-28T00:22:41.501Z,19.90
2022-08-28T00:22:55.459Z,16.48
2022-08-28T00:23:07.629Z,15.05
2022-08-28T00:23:20.060Z,14.90
2022-08-28T00:23:42.417Z,14.43
2022-08-28T00:23:55.712Z,15.07
2022-08-28T00:24:11.141Z,14.93
2022-08-28T00:24:23.229Z,15.65
2022-08-28T00:24:36.093Z,15.25
2022-08-28T00:24:48.133Z,15.32
2022-08-28T00:25:00.109Z,14.45
2022-08-28T00:25:13.335Z,15.23
2022-08-28T00:25:27.741Z,14.55
2022-08-28T00:25:39.697Z,13.73
2022-08-28T00:25:52.556Z,13.50
2022-08-28T00:26:04.515Z,13.07
2022-08-28T00:26:36.815Z,13.43
2022-08-28T00:27:07.202Z,14.00
2022-08-28T00:27:37.536Z,13.88
2022-08-28T00:27:54.934Z,13.48
2022-08-28T00:28:10.997Z,13.73
2022-08-28T00:28:36.031Z,14.55
2022-08-28T00:28:47.967Z,13.65
2022-08-28T00:28:59.971Z,14.65
2022-08-28T00:29:12.019Z,14.93
2022-08-28T00:29:24.295Z,13.90
2022-08-28T00:29:36.342Z,15.02
2022-08-28T00:29:48.316Z,14.70
2022-08-28T00:30:00.254Z,16.05
2022-08-28T00:30:12.681Z,15.63
2022-08-28T00:30:29.792Z,16.67
2022-08-28T00:30:48.328Z,17.45
2022-08-28T00:31:01.798Z,15.57
2022-08-28T00:31:13.886Z,15.55
2022-08-28T00:31:25.940Z,15.80
2022-08-28T00:31:41.202Z,17.05
2022-08-28T00:31:53.258Z,17.60
2022-08-28T00:32:05.758Z,17.13
2022-08-28T00:32:17.878Z,15.70
2022-08-28T00:32:29.874Z,16.10
2022-08-28T00:32:41.856Z,15.75
2022-08-28T00:32:57.052Z,15.63
2022-08-28T00:33:18.331Z,16.33
2022-08-28T00:33:33.226Z,16.13
2022-08-28T00:33:47.520Z,15.20
2022-08-28T00:34:02.598Z,15.57
2022-08-28T00:34:14.698Z,15.55
2022-08-28T00:34:33.006Z,15.00
2022-08-28T00:34:45.208Z,15.93
2022-08-28T00:34:57.803Z,17.48
2022-08-28T00:35:09.804Z,17.25
2022-08-28T00:35:23.271Z,17.23
2022-08-28T00:35:35.289Z,17.30
2022-08-28T00:35:48.069Z,18.02
2022-08-28T00:36:01.555Z,19.45
2022-08-28T00:36:13.491Z,16.65
2022-08-28T00:36:25.466Z,15.43
2022-08-28T00:36:38.668Z,14.88
2022-08-28T00:36:50.688Z,15.82
2022-08-28T00:37:03.577Z,17.50
2022-08-28T00:37:16.097Z,17.75
2022-08-28T00:37:28.351Z,17.52
2022-08-28T00:37:40.323Z,16.85
2022-08-28T00:37:54.847Z,15.27
2022-08-28T00:38:09.180Z,13.10
2022-08-28T00:38:23.417Z,13.25
2022-08-28T00:38:37.646Z,15.45
2022-08-28T00:38:50.467Z,16.40
2022-08-28T00:39:04.221Z,15.88
2022-08-28T00:39:16.470Z,15.90
2022-08-28T00:39:32.147Z,15.90
2022-08-28T00:39:44.620Z,16.52
2022-08-28T00:39:56.802Z,17.35
2022-08-28T00:40:10.149Z,19.20
2022-08-28T00:40:28.755Z,19.52
2022-08-28T00:40:45.768Z,17.90
2022-08-28T00:41:01.760Z,18.98
2022-08-28T00:41:16.602Z,18.95
2022-08-28T00:41:38.991Z,14.98
2022-08-28T00:41:56.637Z,16.38
2022-08-28T00:42:10.265Z,16.55
2022-08-28T00:42:22.206Z,15.93
2022-08-28T00:42:35.123Z,15.68
2022-08-28T00:42:48.105Z,14.80
2022-08-28T00:43:05.100Z,14.25
2022-08-28T00:43:38.416Z,15.23
2022-08-28T00:43:50.467Z,15.57
2022-08-28T00:44:10.167Z,16.13
2022-08-28T00:44:24.275Z,15.38
2022-08-28T00:44:36.755Z,16.15
2022-08-28T00:44:48.752Z,16.35
2022-08-28T00:45:01.063Z,19.38
2022-08-28T00:45:15.183Z,19.60
2022-08-28T00:45:28.123Z,15.50
2022-08-28T00:45:40.424Z,13.90
2022-08-28T00:45:53.290Z,15.23
2022-08-28T00:46:10.507Z,18.08
2022-08-28T00:46:24.070Z,17.55
2022-08-28T00:46:38.367Z,15.90
2022-08-28T00:46:52.244Z,15.88
2022-08-28T00:47:04.275Z,15.48
2022-08-28T00:47:16.233Z,15.68
2022-08-28T00:47:28.294Z,14.85
2022-08-28T00:47:40.981Z,14.70
2022-08-28T00:47:53.155Z,15.05
2022-08-28T00:48:05.384Z,15.68
2022-08-28T00:48:17.437Z,14.15
2022-08-28T00:48:29.606Z,13.48
2022-08-28T00:48:41.760Z,14.40
2022-08-28T00:48:53.767Z,14.05
2022-08-28T00:49:06.679Z,13.05
2022-08-28T00:49:23.752Z,13.82
2022-08-28T00:49:41.090Z,14.75
2022-08-28T00:49:54.934Z,15.57
2022-08-28T00:50:10.455Z,17.15
2022-08-28T00:50:26.995Z,15.30
2022-08-28T00:51:00.579Z,14.68
2022-08-28T00:51:34.336Z,15.43
2022-08-28T00:52:08.058Z,14.65
2022-08-28T00:52:24.138Z,12.45
2022-08-28T00:52:37.030Z,12.93
2022-08-28T00:52:53.139Z,15.02
2022-08-28T00:53:05.099Z,16.05
2022-08-28T00:53:17.180Z,13.75
2022-08-28T00:53:32.874Z,13.85
2022-08-28T00:53:45.268Z,14.73
2022-08-28T00:53:59.326Z,14.10
2022-08-28T00:54:11.999Z,12.65
2022-08-28T00:54:25.486Z,12.38
2022-08-28T00:55:02.981Z,12.85
2022-08-28T00:55:22.380Z,13.10
2022-08-28T00:55:34.916Z,14.07
2022-08-28T00:55:47.242Z,14.77
2022-08-28T00:55:59.243Z,17.42
2022-08-28T00:56:13.662Z,16.10
2022-08-28T00:56:26.297Z,14.25
2022-08-28T00:56:40.603Z,14.40
2022-08-28T00:56:54.907Z,14.13
2022-08-28T00:57:11.042Z,14.60
2022-08-28T00:57:28.621Z,14.65
2022-08-28T00:57:44.836Z,15.15
2022-08-28T00:58:02.383Z,16.60
2022-08-28T00:58:14.706Z,17.05
2022-08-28T00:58:26.818Z,17.08
2022-08-28T00:58:40.092Z,17.38
2022-08-28T00:58:54.553Z,18.80
2022-08-28T00:59:15.465Z,18.52
2022-08-28T00:59:27.738Z,18.75
2022-08-28T00:59:39.723Z,19.10
2022-08-28T00:59:52.043Z,17.88
2022-08-28T01:00:08.741Z,18.55
2022-08-28T01:00:33.937Z,18.75
2022-08-28T01:00:46.126Z,17.08
2022-08-28T01:00:59.138Z,18.50
2022-08-28T01:01:14.566Z,22.73
2022-08-28T01:01:26.686Z,20.83
2022-08-28T01:01:39.190Z,19.23
2022-08-28T01:01:55.926Z,19.00
2022-08-28T01:02:08.467Z,20.15
2022-08-28T01:02:21.287Z,19.42
2022-08-28T01:02:33.449Z,19.20
2022-08-28T01:02:46.138Z,18.98
2022-08-28T01:02:58.867Z,19.20
2022-08-28T01:03:11.243Z,19.23
2022-08-28T01:03:25.137Z,18.55
2022-08-28T01:03:38.522Z,20.63
2022-08-28T01:03:50.636Z,21.50
2022-08-28T01:04:06.092Z,20.70
2022-08-28T01:04:20.208Z,19.42
2022-08-28T01:04:33.547Z,19.95
2022-08-28T01:04:49.615Z,18.30
2022-08-28T01:05:01.830Z,17.13
2022-08-28T01:05:15.645Z,18.83
2022-08-28T01:05:28.892Z,19.80
2022-08-28T01:05:43.522Z,20.60
2022-08-28T01:05:55.802Z,21.20
2022-08-28T01:06:10.135Z,19.92
2022-08-28T01:06:22.127Z,17.10
2022-08-28T01:06:36.201Z,17.83
2022-08-28T01:06:53.456Z,19.75
2022-08-28T01:07:12.778Z,18.17
2022-08-28T01:07:24.896Z,16.63
2022-08-28T01:07:38.202Z,15.80
2022-08-28T01:07:50.918Z,15.75
2022-08-28T01:08:04.367Z,15.85
2022-08-28T01:08:18.609Z,15.45
2022-08-28T01:08:31.262Z,14.95
2022-08-28T01:08:46.163Z,14.77
2022-08-28T01:09:04.431Z,14.52
2022-08-28T01:09:20.922Z,14.98
2022-08-28T01:09:34.606Z,14.10
2022-08-28T01:09:50.972Z,13.82
2022-08-28T01:10:05.531Z,15.57
2022-08-28T01:10:22.114Z,15.07
2022-08-28T01:10:34.886Z,14.23
2022-08-28T01:10:50.338Z,15.07
2022-08-28T01:11:06.123Z,17.20
2022-08-28T01:11:19.851Z,18.02
2022-08-28T01:11:33.114Z,16.38
2022-08-28T01:11:47.415Z,14.68
2022-08-28T01:12:08.473Z,14.10
2022-08-28T01:12:27.139Z,14.15
2022-08-28T01:12:39.209Z,13.95
2022-08-28T01:12:56.175Z,14.35
2022-08-28T01:13:08.429Z,14.18
2022-08-28T01:13:20.872Z,14.70
2022-08-28T01:13:33.298Z,14.70
2022-08-28T01:13:48.379Z,14.85
2022-08-28T01:14:02.892Z,16.52
2022-08-28T01:14:18.259Z,15.82
2022-08-28T01:14:33.766Z,14.05
2022-08-28T01:14:49.197Z,14.95
2022-08-28T01:15:11.792Z,14.40
2022-08-28T01:15:29.659Z,16.38
2022-08-28T01:15:42.922Z,13.90
2022-08-28T01:15:55.966Z,13.77
2022-08-28T01:16:08.924Z,15.57
2022-08-28T01:16:22.519Z,16.60
2022-08-28T01:16:37.564Z,15.65
2022-08-28T01:16:55.357Z,15.35
2022-08-28T01:17:09.692Z,15.90
2022-08-28T01:17:24.446Z,16.63
2022-08-28T01:17:36.907Z,15.70
2022-08-28T01:18:02.559Z,14.35
2022-08-28T01:18:17.816Z,16.92
2022-08-28T01:18:32.298Z,16.63
2022-08-28T01:18:46.109Z,16.80
2022-08-28T01:19:00.460Z,18.00
2022-08-28T01:19:31.411Z,19.13
2022-08-28T01:19:48.242Z,19.65
2022-08-28T01:20:09.392Z,19.63
2022-08-28T01:20:28.581Z,19.55
2022-08-28T01:20:48.476Z,17.73
2022-08-28T01:21:03.218Z,18.13
2022-08-28T01:21:30.768Z,19.08
2022-08-28T01:21:48.744Z,17.30
2022-08-28T01:22:12.876Z,18.02
2022-08-28T01:22:37.319Z,18.77
2022-08-28T01:23:09.763Z,15.57
2022-08-28T01:23:44.366Z,16.70
2022-08-28T01:24:14.689Z,15.68
2022-08-28T01:24:27.342Z,16.08
2022-08-28T01:24:40.413Z,18.00
2022-08-28T01:24:55.898Z,18.33
2022-08-28T01:25:13.109Z,17.30
2022-08-28T01:25:30.402Z,16.00
2022-08-28T01:25:42.844Z,16.88
2022-08-28T01:25:54.971Z,16.50
2022-08-28T01:26:10.722Z,17.48
2022-08-28T01:26:25.880Z,19.38
2022-08-28T01:26:38.536Z,20.65
2022-08-28T01:26:50.518Z,20.67
2022-08-28T01:27:02.502Z,21.27
2022-08-28T01:27:14.495Z,19.33
2022-08-28T01:27:26.897Z,18.25
2022-08-28T01:27:41.804Z,18.20
2022-08-28T01:27:53.852Z,18.58
2022-08-28T01:28:08.987Z,18.48
2022-08-28T01:28:21.106Z,16.63
2022-08-28T01:28:33.667Z,15.98
2022-08-28T01:28:46.139Z,16.00
2022-08-28T01:28:59.818Z,17.25
2022-08-28T01:29:12.374Z,18.17
2022-08-28T01:29:25.058Z,18.60
2022-08-28T01:29:37.227Z,18.15
2022-08-28T01:29:50.323Z,20.00
2022-08-28T01:30:03.503Z,20.52
2022-08-28T01:30:19.538Z,20.33
2022-08-28T01:30:32.363Z,17.52
2022-08-28T01:30:47.647Z,14.85
2022-08-28T01:30:59.755Z,15.10
2022-08-28T01:31:14.066Z,15.93
2022-08-28T01:31:28.964Z,16.92
2022-08-28T01:31:41.995Z,16.88
2022-08-28T01:31:54.286Z,16.48
2022-08-28T01:32:06.256Z,16.13
2022-08-28T01:32:41.797Z,16.00
2022-08-28T01:32:55.882Z,17.63
2022-08-28T01:33:08.715Z,21.13
2022-08-28T01:33:24.293Z,20.85
2022-08-28T01:33:42.346Z,17.05
2022-08-28T01:33:54.931Z,17.05
2022-08-28T01:34:08.900Z,17.55
2022-08-28T01:34:21.155Z,17.17
2022-08-28T01:34:34.256Z,18.20
2022-08-28T01:34:46.194Z,18.73
2022-08-28T01:34:59.138Z,18.70
2022-08-28T01:35:15.039Z,17.40
2022-08-28T01:35:31.582Z,14.95
2022-08-28T01:35:47.449Z,15.10
2022-08-28T01:35:59.417Z,15.70
2022-08-28T01:36:13.313Z,17.90
2022-08-28T01:36:25.891Z,18.75
2022-08-28T01:36:37.938Z,17.30
2022-08-28T01:36:49.902Z,15.73
2022-08-28T01:37:03.737Z,17.25
2022-08-28T01:37:15.783Z,17.70
2022-08-28T01:37:28.483Z,15.85
2022-08-28T01:37:41.447Z,16.85
2022-08-28T01:37:55.742Z,16.95
2022-08-28T01:38:08.044Z,16.52
2022-08-28T01:38:21.969Z,14.25
2022-08-28T01:38:41.319Z,15.90
2022-08-28T01:38:58.958Z,17.25
2022-08-28T01:39:19.903Z,15.80
2022-08-28T01:39:31.891Z,15.38
2022-08-28T01:39:43.839Z,16.70
2022-08-28T01:39:55.858Z,17.10
2022-08-28T01:40:10.091Z,17.23
2022-08-28T01:40:32.038Z,17.63
2022-08-28T01:40:48.097Z,16.27
2022-08-28T01:41:00.315Z,17.77
2022-08-28T01:41:13.960Z,17.65
2022-08-28T01:41:25.945Z,15.70
2022-08-28T01:41:42.327Z,15.43
2022-08-28T01:41:55.475Z,17.48
2022-08-28T01:42:07.449Z,18.05
2022-08-28T01:42:19.571Z,17.10
2022-08-28T01:42:37.168Z,15.77
2022-08-28T01:42:50.186Z,16.65
2022-08-28T01:43:20.557Z,16.33
2022-08-28T01:43:32.626Z,14.82
2022-08-28T01:43:45.147Z,15.05
2022-08-28T01:43:57.443Z,15.95
2022-08-28T01:44:09.734Z,15.57
2022-08-28T01:44:25.691Z,14.55
2022-08-28T01:44:38.004Z,15.45
2022-08-28T01:44:50.210Z,15.43
2022-08-28T01:45:02.140Z,14.82
2022-08-28T01:45:16.279Z,16.83
2022-08-28T01:45:28.359Z,17.60
2022-08-28T01:45:44.133Z,16.58
2022-08-28T01:46:01.823Z,17.00
2022-08-28T01:46:14.197Z,16.02
2022-08-28T01:46:26.199Z,15.98
2022-08-28T01:46:41.818Z,16.48
2022-08-28T01:46:56.370Z,18.17
2022-08-28T01:47:08.378Z,17.45
2022-08-28T01:47:21.575Z,15.65
2022-08-28T01:47:33.575Z,16.35
2022-08-28T01:47:47.339Z,13.75
2022-08-28T01:47:59.302Z,14.43
2022-08-28T01:48:13.126Z,14.52
2022-08-28T01:48:26.370Z,14.88
2022-08-28T01:48:42.980Z,15.10
2022-08-28T01:48:55.182Z,14.85
2022-08-28T01:49:11.919Z,14.00
2022-08-28T01:49:25.233Z,14.00
2022-08-28T01:49:37.379Z,16.65
2022-08-28T01:49:49.327Z,16.88
2022-08-28T01:50:01.319Z,16.23
2022-08-28T01:50:17.142Z,17.25
2022-08-28T01:50:29.255Z,17.15
2022-08-28T01:50:42.503Z,14.90
2022-08-28T01:50:55.325Z,14.35
2022-08-28T01:51:08.268Z,15.43
2022-08-28T01:51:24.352Z,16.38
2022-08-28T01:51:38.263Z,14.85
2022-08-28T01:51:50.627Z,13.27
2022-08-28T01:52:04.731Z,13.82
2022-08-28T01:52:16.675Z,14.85
2022-08-28T01:52:28.909Z,14.40
2022-08-28T01:52:41.623Z,14.68
2022-08-28T01:52:55.035Z,14.07
2022-08-28T01:53:11.948Z,14.35
2022-08-28T01:53:32.138Z,14.95
2022-08-28T01:53:46.545Z,13.50
2022-08-28T01:53:58.715Z,15.65
2022-08-28T01:54:12.015Z,16.20
2022-08-28T01:54:25.762Z,16.13
2022-08-28T01:54:38.048Z,15.73
2022-08-28T01:54:51.027Z,14.07
2022-08-28T01:55:06.551Z,15.98
2022-08-28T01:55:21.451Z,16.05
2022-08-28T01:55:35.990Z,14.98
2022-08-28T01:55:50.047Z,15.98
2022-08-28T01:56:05.167Z,15.95
2022-08-28T01:56:17.668Z,16.00
2022-08-28T01:56:29.853Z,15.95
2022-08-28T01:56:44.214Z,16.25
2022-08-28T01:56:56.276Z,15.27
2022-08-28T01:57:08.236Z,13.68
2022-08-28T01:57:20.190Z,15.10
2022-08-28T01:57:35.954Z,17.92
2022-08-28T01:57:52.944Z,17.98
2022-08-28T01:58:06.787Z,15.45
2022-08-28T01:58:19.170Z,14.90
2022-08-28T01:58:36.041Z,15.43
2022-08-28T01:58:50.050Z,17.73
2022-08-28T01:59:05.369Z,18.50
2022-08-28T01:59:17.581Z,18.38
2022-08-28T01:59:29.770Z,18.17
2022-08-28T01:59:41.843Z,18.25
2022-08-28T01:59:54.773Z,16.08
2022-08-28T02:00:07.481Z,16.20
2022-08-28T02:00:20.062Z,16.83
2022-08-28T02:00:32.108Z,16.88
2022-08-28T02:00:44.365Z,15.50
2022-08-28T02:00:57.366Z,16.10
2022-08-28T02:01:15.243Z,15.35
2022-08-28T02:01:27.275Z,16.23
2022-08-28T02:01:40.202Z,17.02
2022-08-28T02:01:55.222Z,14.98
2022-08-28T02:02:07.479Z,16.42
2022-08-28T02:02:19.568Z,16.23
2022-08-28T02:02:31.714Z,15.97
2022-08-28T02:02:43.747Z,17.83
2022-08-28T02:02:57.810Z,17.48
2022-08-28T02:03:10.146Z,18.42
2022-08-28T02:03:23.553Z,16.80
2022-08-28T02:03:35.535Z,17.83
2022-08-28T02:03:49.131Z,16.88
2022-08-28T02:04:01.210Z,15.60
2022-08-28T02:04:14.249Z,16.23
2022-08-28T02:04:32.255Z,16.52
2022-08-28T02:04:48.012Z,15.05
2022-08-28T02:05:00.196Z,16.58
2022-08-28T02:05:12.226Z,16.65
2022-08-28T02:05:27.303Z,15.90
2022-08-28T02:05:39.952Z,15.05
2022-08-28T02:05:52.001Z,15.87
2022-08-28T02:06:04.703Z,15.63
2022-08-28T02:06:17.727Z,13.45
2022-08-28T02:06:30.427Z,14.55
2022-08-28T02:06:42.411Z,17.98
2022-08-28T02:06:54.338Z,18.00
2022-08-28T02:07:06.247Z,15.80
2022-08-28T02:07:18.321Z,15.40
2022-08-28T02:07:30.254Z,15.32
2022-08-28T02:07:42.176Z,16.38
2022-08-28T02:07:54.115Z,16.65
2022-08-28T02:08:07.667Z,16.05
2022-08-28T02:08:20.425Z,16.15
2022-08-28T02:08:32.588Z,16.38
2022-08-28T02:08:45.865Z,16.42
2022-08-28T02:08:59.406Z,15.25
2022-08-28T02:09:14.723Z,15.48
2022-08-28T02:09:26.908Z,16.52
2022-08-28T02:09:38.867Z,17.27
2022-08-28T02:09:51.635Z,15.95
2022-08-28T02:10:05.710Z,16.77
2022-08-28T02:10:18.571Z,16.92
2022-08-28T02:10:33.185Z,16.48
2022-08-28T02:10:45.315Z,16.10
2022-08-28T02:10:57.275Z,15.52
2022-08-28T02:11:10.271Z,15.25
2022-08-28T02:11:24.143Z,15.43
2022-08-28T02:11:36.082Z,15.35
2022-08-28T02:11:47.995Z,15.10
2022-08-28T02:11:59.951Z,16.23
2022-08-28T02:12:11.971Z,20.48
2022-08-28T02:12:25.019Z,19.77
2022-08-28T02:12:36.954Z,20.02
2022-08-28T02:12:49.302Z,16.13
2022-08-28T02:13:02.292Z,14.65
2022-08-28T02:13:14.537Z,15.20
2022-08-28T02:13:26.896Z,15.23
2022-08-28T02:13:40.504Z,15.63
2022-08-28T02:13:54.302Z,14.50
2022-08-28T02:14:08.255Z,15.38
2022-08-28T02:14:20.605Z,16.75
2022-08-28T02:14:32.728Z,16.50
2022-08-28T02:14:44.660Z,16.30
2022-08-28T02:14:56.627Z,14.93
2022-08-28T02:15:08.986Z,15.60
2022-08-28T02:15:23.637Z,15.55
2022-08-28T02:15:37.070Z,16.25
2022-08-28T02:15:49.070Z,15.18
2022-08-28T02:16:01.287Z,13.93
2022-08-28T02:16:13.421Z,15.93
2022-08-28T02:16:25.963Z,16.35
2022-08-28T02:16:37.991Z,14.85
2022-08-28T02:16:50.124Z,16.02
2022-08-28T02:17:02.536Z,15.23
2022-08-28T02:17:14.624Z,16.23
2022-08-28T02:17:26.550Z,15.70
2022-08-28T02:17:38.851Z,15.93
2022-08-28T02:17:51.386Z,16.13
2022-08-28T02:18:04.651Z,15.20
2022-08-28T02:18:17.235Z,16.98
2022-08-28T02:18:29.228Z,16.85
2022-08-28T02:18:41.854Z,14.90
2022-08-28T02:18:53.803Z,18.70
2022-08-28T02:19:06.067Z,18.38
2022-08-28T02:19:18.042Z,16.73
2022-08-28T02:19:30.476Z,16.80
2022-08-28T02:19:42.495Z,17.77
2022-08-28T02:19:54.503Z,16.40
2022-08-28T02:20:07.443Z,15.85
2022-08-28T02:20:19.426Z,17.13
2022-08-28T02:20:33.399Z,18.15
2022-08-28T02:20:45.386Z,16.80
2022-08-28T02:20:57.328Z,16.10
2022-08-28T02:21:10.588Z,15.80
2022-08-28T02:21:22.695Z,15.15
2022-08-28T02:21:35.516Z,14.80
2022-08-28T02:21:47.439Z,14.40
2022-08-28T02:21:59.512Z,14.75
2022-08-28T02:22:13.359Z,16.30
2022-08-28T02:22:25.607Z,16.40
2022-08-28T02:22:37.655Z,14.30
2022-08-28T02:22:50.234Z,14.27
2022-08-28T02:23:02.275Z,15.93
2022-08-28T02:23:14.663Z,17.40
2022-08-28T02:23:27.234Z,17.58
2022-08-28T02:23:41.851Z,16.65
2022-08-28T02:23:53.780Z,16.88
2022-08-28T02:24:05.906Z,16.58
2022-08-28T02:24:18.344Z,17.45
2022-08-28T02:24:30.340Z,16.20
2022-08-28T02:24:42.289Z,15.90
2022-08-28T02:24:54.293Z,13.50
2022-08-28T02:25:08.091Z,14.68
2022-08-28T02:25:20.097Z,16.63
2022-08-28T02:25:32.210Z,16.27
2022-08-28T02:25:44.148Z,15.02
2022-08-28T02:25:56.095Z,14.85
2022-08-28T02:26:09.703Z,14.23
2022-08-28T02:26:21.870Z,14.15
2022-08-28T02:26:33.827Z,14.25
2022-08-28T02:26:46.838Z,14.27
2022-08-28T02:26:58.822Z,17.85
2022-08-28T02:27:10.805Z,18.42
2022-08-28T02:27:22.783Z,17.38
2022-08-28T02:27:36.577Z,15.00
2022-08-28T02:27:49.100Z,14.35
2022-08-28T02:28:01.209Z,14.30
2022-08-28T02:28:13.251Z,14.82
2022-08-28T02:28:25.373Z,14.77
2022-08-28T02:28:37.658Z,14.30
2022-08-28T02:28:49.923Z,13.27
2022-08-28T02:29:01.891Z,13.32
2022-08-28T02:29:13.880Z,14.32
2022-08-28T02:29:27.145Z,14.57
2022-08-28T02:29:39.248Z,14.68
2022-08-28T02:29:51.334Z,14.80
2022-08-28T02:30:04.803Z,13.52
2022-08-28T02:30:17.305Z,14.05
2022-08-28T02:30:29.538Z,14.52
2022-08-28T02:30:41.531Z,14.50
2022-08-28T02:30:53.678Z,15.32
2022-08-28T02:31:09.205Z,14.30
2022-08-28T02:31:21.309Z,14.73
2022-08-28T02:31:33.299Z,15.10
2022-08-28T02:31:45.240Z,13.95
2022-08-28T02:31:57.253Z,14.38
2022-08-28T02:32:09.198Z,14.02
2022-08-28T02:32:21.668Z,13.38
2022-08-28T02:32:33.747Z,14.02
2022-08-28T02:32:46.592Z,15.20
2022-08-28T02:32:58.576Z,15.35
2022-08-28T02:33:10.526Z,14.02
2022-08-28T02:33:22.515Z,13.60
2022-08-28T02:33:37.547Z,13.30
2022-08-28T02:33:49.703Z,13.52
2022-08-28T02:34:01.850Z,14.35
2022-08-28T02:34:13.809Z,14.73
2022-08-28T02:34:25.800Z,13.60
2022-08-28T02:34:37.942Z,14.45
2022-08-28T02:34:49.899Z,13.43
2022-08-28T02:35:01.946Z,13.60
2022-08-28T02:35:16.633Z,14.18
2022-08-28T02:35:28.582Z,15.35
2022-08-28T02:35:42.785Z,14.57
2022-08-28T02:35:55.154Z,15.57
2022-08-28T02:36:08.970Z,15.75
2022-08-28T02:36:20.909Z,14.05
2022-08-28T02:36:33.729Z,14.77
2022-08-28T02:36:45.647Z,15.15
2022-08-28T02:36:57.600Z,15.80
2022-08-28T02:37:13.139Z,15.48
2022-08-28T02:37:25.119Z,15.77
2022-08-28T02:37:37.220Z,15.00
2022-08-28T02:37:49.894Z,13.75
2022-08-28T02:38:02.682Z,13.30
2022-08-28T02:38:15.262Z,15.32
2022-08-28T02:38:27.312Z,14.63
2022-08-28T02:38:39.295Z,15.52
2022-08-28T02:38:57.429Z,15.90
2022-08-28T02:39:10.772Z,13.98
2022-08-28T02:39:22.706Z,12.68
2022-08-28T02:39:34.924Z,13.63
2022-08-28T02:39:47.511Z,14.32
2022-08-28T02:40:00.224Z,13.93
2022-08-28T02:40:16.350Z,14.52
2022-08-28T02:40:29.661Z,15.45
2022-08-28T02:40:41.966Z,15.95
2022-08-28T02:40:53.927Z,15.90
2022-08-28T02:41:06.999Z,14.98
2022-08-28T02:41:19.001Z,15.18
2022-08-28T02:41:31.257Z,16.25
2022-08-28T02:41:43.246Z,16.92
2022-08-28T02:41:55.573Z,16.80
2022-08-28T02:42:07.586Z,14.85
2022-08-28T02:42:19.537Z,13.68
2022-08-28T02:42:31.724Z,12.35
2022-08-28T02:42:44.507Z,12.98
2022-08-28T02:42:56.606Z,13.83
2022-08-28T02:43:08.733Z,13.05
2022-08-28T02:43:20.662Z,13.57
2022-08-28T02:43:32.974Z,12.48
2022-08-28T02:43:45.168Z,11.95
2022-08-28T02:43:57.170Z,11.77
2022-08-28T02:44:10.041Z,12.82
2022-08-28T02:44:22.055Z,13.65
2022-08-28T02:44:34.898Z,13.27
2022-08-28T02:44:46.861Z,14.32
2022-08-28T02:44:59.470Z,15.02
2022-08-28T02:45:12.990Z,13.73
2022-08-28T02:45:24.963Z,11.65
2022-08-28T02:45:37.100Z,11.70
2022-08-28T02:45:49.315Z,12.38
2022-08-28T02:46:01.603Z,12.40
2022-08-28T02:46:13.778Z,12.27
2022-08-28T02:46:26.545Z,12.05
2022-08-28T02:46:38.612Z,12.15
2022-08-28T02:46:51.760Z,11.70
2022-08-28T02:47:06.077Z,11.27
2022-08-28T02:47:18.648Z,13.18
2022-08-28T02:47:30.593Z,13.07
2022-08-28T02:47:44.947Z,13.20
2022-08-28T02:47:57.263Z,12.52
2022-08-28T02:48:15.621Z,11.93
2022-08-28T02:48:31.623Z,13.00
2022-08-28T02:48:43.702Z,13.50
2022-08-28T02:48:56.133Z,11.95
2022-08-28T02:49:08.140Z,11.63
2022-08-28T02:49:20.078Z,11.23
2022-08-28T02:49:36.259Z,11.10
2022-08-28T02:49:48.390Z,11.82
2022-08-28T02:50:00.339Z,13.00
2022-08-28T02:50:15.328Z,13.10
2022-08-28T02:50:29.780Z,11.45
2022-08-28T02:50:41.698Z,11.45
2022-08-28T02:50:58.627Z,11.95
2022-08-28T02:51:13.331Z,13.70
2022-08-28T02:51:25.511Z,13.13
2022-08-28T02:51:37.429Z,12.25
2022-08-28T02:51:50.339Z,11.77
2022-08-28T02:52:02.376Z,12.25
2022-08-28T02:52:14.337Z,11.77
2022-08-28T02:52:26.953Z,13.02
2022-08-28T02:52:40.386Z,14.15
2022-08-28T02:52:52.518Z,13.50
2022-08-28T02:53:04.491Z,11.93
2022-08-28T02:53:16.418Z,11.82
2022-08-28T02:53:29.300Z,12.25
2022-08-28T02:53:42.450Z,12.10
2022-08-28T02:53:54.497Z,11.27
2022-08-28T02:54:06.463Z,11.63
2022-08-28T02:54:18.618Z,13.10
2022-08-28T02:54:30.963Z,13.45
2022-08-28T02:54:42.946Z,14.18
2022-08-28T02:54:54.887Z,14.50
2022-08-28T02:55:08.634Z,13.68
2022-08-28T02:55:21.206Z,11.50
2022-08-28T02:55:34.292Z,13.02
2022-08-28T02:55:46.500Z,13.73
2022-08-28T02:55:59.980Z,13.38
2022-08-28T02:56:12.151Z,11.80
2022-08-28T02:56:24.566Z,13.52
2022-08-28T02:56:36.551Z,13.55
2022-08-28T02:56:48.514Z,14.18
2022-08-28T02:57:00.503Z,15.25
2022-08-28T02:57:12.449Z,15.27
2022-08-28T02:57:24.443Z,15.35
2022-08-28T02:57:36.459Z,14.90
2022-08-28T02:57:48.613Z,13.68
2022-08-28T02:58:00.870Z,11.95